Krusa, Denmark
Current Conditions -  °F | °C
As of 7:20 AM on Saturday 29 Nov 2014 (Local Time) from ETGG Reporting Station
Broken Clouds Broken Clouds  
Wind Chill: 26°   Ceiling: 1700
Heat Index: 36°   Visibility: 6mi
Dew Point: 28°   Wind: 16mph
Humidity: 75%   Direction: 120°ESE
Pressure: 30.18"   Gusts: 31mph
Location:  54.85°N, 9.4°E
Report Text: ETGG 290620Z 12014G27KT 9999 BKN017 02/M02 Q1022 WHT
Loading
Personal Weather Stations






























Interactive Weather Map New forecast layout! Learn more

10-Day Weather Forecast

Advertisements
Track Severe Weather on mobile